This is the latest recevied weather packets stored in our database for station/object NR0Q. If no packets are shown the sender has not sent any weather packets the latest 10 day(s).
| Time | Temp. | Humidity | Pressure | Rain* | Wind** | Luminosity | Snow |
|---|---|---|---|---|---|---|---|
| 1777853701 | 26.11° C | 29% | 1011.5 hPa | 0 mm | - | - | - |
| 1777852801 | 26.67° C | 29% | 1011.5 hPa | 0 mm | - | - | - |
| 1777851901 | 27.78° C | 27% | 1011.5 hPa | 0 mm | - | - | - |
| 1777850101 | 28.33° C | 23% | 1011.5 hPa | 0 mm | - | - | - |
| 1777849201 | 28.89° C | 22% | 1011.5 hPa | 0 mm | - | - | - |
| 1777848301 | 28.89° C | 22% | 1011.5 hPa | 0 mm | - | - | - |
| 1777846501 | 28.89° C | 24% | 1011.5 hPa | 0 mm | - | - | - |
| 1777845601 | 28.89° C | 23% | 1011.5 hPa | 0 mm | - | - | - |
| 1777844701 | 28.89° C | 23% | 1011.5 hPa | 0 mm | - | - | - |
| 1777843802 | 29.44° C | 23% | 1012.5 hPa | 0 mm | - | - | - |
| 1777842002 | 28.89° C | 24% | 1012.5 hPa | 0 mm | - | - | - |
| 1777841102 | 28.89° C | 26% | 1012.5 hPa | 0 mm | - | - | - |
| 1777839301 | 28.33° C | 29% | 1013.6 hPa | 0 mm | - | - | - |
| 1777838402 | 28.33° C | 26% | 1013.6 hPa | 0 mm | - | - | - |
| 1777837502 | 28.89° C | 28% | 1014.6 hPa | 0 mm | - | - | - |
| 1777836601 | 28.89° C | 29% | 1014.6 hPa | 0 mm | - | - | - |
| 1777835701 | 27.78° C | 33% | 1014.6 hPa | 0 mm | - | - | - |
| 1777834801 | 28.33° C | 34% | 1014.6 hPa | 0 mm | - | - | - |
| 1777833901 | 27.22° C | 36% | 1014.6 hPa | 0 mm | - | - | - |
| 1777833002 | 27.22° C | 40% | 1015.6 hPa | 0 mm | - | - | - |
| 1777832102 | 26.67° C | 40% | 1015.6 hPa | 0 mm | - | - | - |
| 1777831201 | 26.11° C | 41% | 1015.6 hPa | 0 mm | - | - | - |
| 1777830302 | 25° C | 44% | 1016.6 hPa | 0 mm | - | - | - |
| 1777829401 | 25° C | 43% | 1016.6 hPa | 0 mm | - | - | - |
| 1777828503 | 24.44° C | 44% | 1016.6 hPa | 0 mm | - | - | - |
* Rain latest hour (hover to see other rain measurements)
** Current wind speed in m/s (hover to see current wind gust speed)